sensor_id;sensor_type;location;lat;lon;timestamp;temperature;humidity
262;DHT22;114;48.260;10.988;2023-12-20T00:01:13;5.40;1.00
262;DHT22;114;48.260;10.988;2023-12-20T00:03:40;5.60;1.00
262;DHT22;114;48.260;10.988;2023-12-20T00:06:06;5.60;1.00
262;DHT22;114;48.260;10.988;2023-12-20T00:08:33;5.60;1.00
262;DHT22;114;48.260;10.988;2023-12-20T00:11:00;5.60;1.00
262;DHT22;114;48.260;10.988;2023-12-20T00:13:26;5.60;1.00
262;DHT22;114;48.260;10.988;2023-12-20T00:15:51;5.50;1.00
262;DHT22;114;48.260;10.988;2023-12-20T00:18:17;5.50;1.00
262;DHT22;114;48.260;10.988;2023-12-20T00:20:43;5.40;1.00
262;DHT22;114;48.260;10.988;2023-12-20T00:23:08;5.40;1.00
262;DHT22;114;48.260;10.988;2023-12-20T00:25:34;5.50;1.00
262;DHT22;114;48.260;10.988;2023-12-20T00:28:00;5.40;1.00
262;DHT22;114;48.260;10.988;2023-12-20T00:30:26;5.40;1.00
262;DHT22;114;48.260;10.988;2023-12-20T00:32:52;5.30;1.00
262;DHT22;114;48.260;10.988;2023-12-20T00:35:18;5.30;1.00
262;DHT22;114;48.260;10.988;2023-12-20T00:37:44;5.30;1.00
262;DHT22;114;48.260;10.988;2023-12-20T00:40:10;5.30;1.00
262;DHT22;114;48.260;10.988;2023-12-20T00:42:36;5.30;1.00
262;DHT22;114;48.260;10.988;2023-12-20T00:45:03;5.30;1.00
262;DHT22;114;48.260;10.988;2023-12-20T00:47:31;5.40;1.00
262;DHT22;114;48.260;10.988;2023-12-20T00:49:59;5.50;1.00
262;DHT22;114;48.260;10.988;2023-12-20T00:52:25;5.50;1.00
262;DHT22;114;48.260;10.988;2023-12-20T00:54:50;5.60;1.00
262;DHT22;114;48.260;10.988;2023-12-20T00:57:16;5.70;1.00
262;DHT22;114;48.260;10.988;2023-12-20T00:59:42;5.70;1.00
262;DHT22;114;48.260;10.988;2023-12-20T01:02:07;5.70;1.00
262;DHT22;114;48.260;10.988;2023-12-20T01:04:34;5.80;1.00
262;DHT22;114;48.260;10.988;2023-12-20T01:07:00;5.70;1.00
262;DHT22;114;48.260;10.988;2023-12-20T01:09:25;5.80;1.00
262;DHT22;114;48.260;10.988;2023-12-20T01:11:55;5.70;1.00
262;DHT22;114;48.260;10.988;2023-12-20T01:14:20;5.60;1.00
262;DHT22;114;48.260;10.988;2023-12-20T01:16:47;5.70;1.00
262;DHT22;114;48.260;10.988;2023-12-20T01:19:13;5.60;1.00
262;DHT22;114;48.260;10.988;2023-12-20T01:21:40;5.60;1.00
262;DHT22;114;48.260;10.988;2023-12-20T01:24:06;5.70;1.00
262;DHT22;114;48.260;10.988;2023-12-20T01:26:33;5.60;1.00
262;DHT22;114;48.260;10.988;2023-12-20T01:28:59;5.60;1.00
262;DHT22;114;48.260;10.988;2023-12-20T01:31:24;5.60;1.00
262;DHT22;114;48.260;10.988;2023-12-20T01:33:50;5.60;1.00
262;DHT22;114;48.260;10.988;2023-12-20T01:36:16;5.50;1.00
262;DHT22;114;48.260;10.988;2023-12-20T01:38:41;5.60;1.00
262;DHT22;114;48.260;10.988;2023-12-20T01:41:07;5.50;1.00
262;DHT22;114;48.260;10.988;2023-12-20T01:43:33;5.50;1.00
262;DHT22;114;48.260;10.988;2023-12-20T01:45:59;5.50;1.00
262;DHT22;114;48.260;10.988;2023-12-20T01:48:25;5.50;1.00
262;DHT22;114;48.260;10.988;2023-12-20T01:50:53;5.60;1.00
262;DHT22;114;48.260;10.988;2023-12-20T01:53:21;5.40;1.00
262;DHT22;114;48.260;10.988;2023-12-20T01:55:50;5.50;1.00
262;DHT22;114;48.260;10.988;2023-12-20T01:58:17;5.40;1.00
262;DHT22;114;48.260;10.988;2023-12-20T02:00:45;5.40;1.00
262;DHT22;114;48.260;10.988;2023-12-20T02:03:11;5.40;1.00
262;DHT22;114;48.260;10.988;2023-12-20T02:05:38;5.30;1.00
262;DHT22;114;48.260;10.988;2023-12-20T02:08:05;5.30;1.00
262;DHT22;114;48.260;10.988;2023-12-20T02:10:31;5.40;1.00
262;DHT22;114;48.260;10.988;2023-12-20T02:12:57;5.50;1.00
262;DHT22;114;48.260;10.988;2023-12-20T02:15:23;5.40;1.00
262;DHT22;114;48.260;10.988;2023-12-20T02:17:49;5.40;1.00
262;DHT22;114;48.260;10.988;2023-12-20T02:20:15;5.40;1.00
262;DHT22;114;48.260;10.988;2023-12-20T02:22:41;5.40;1.00
262;DHT22;114;48.260;10.988;2023-12-20T02:25:07;5.40;1.00
262;DHT22;114;48.260;10.988;2023-12-20T02:27:32;5.40;1.00
262;DHT22;114;48.260;10.988;2023-12-20T02:29:59;5.40;1.00
262;DHT22;114;48.260;10.988;2023-12-20T02:32:25;5.50;1.00
262;DHT22;114;48.260;10.988;2023-12-20T02:34:52;5.50;1.00
262;DHT22;114;48.260;10.988;2023-12-20T02:37:17;5.50;1.00
262;DHT22;114;48.260;10.988;2023-12-20T02:39:43;5.60;1.00
262;DHT22;114;48.260;10.988;2023-12-20T02:42:08;5.60;1.00
262;DHT22;114;48.260;10.988;2023-12-20T02:44:35;5.60;1.00
262;DHT22;114;48.260;10.988;2023-12-20T02:47:02;5.60;1.00
262;DHT22;114;48.260;10.988;2023-12-20T02:49:28;5.60;1.00
262;DHT22;114;48.260;10.988;2023-12-20T02:51:53;5.50;1.00
262;DHT22;114;48.260;10.988;2023-12-20T02:54:19;5.50;1.00
262;DHT22;114;48.260;10.988;2023-12-20T02:56:45;5.50;1.00
262;DHT22;114;48.260;10.988;2023-12-20T02:59:10;5.50;1.00
262;DHT22;114;48.260;10.988;2023-12-20T03:01:42;5.60;1.00
262;DHT22;114;48.260;10.988;2023-12-20T03:04:09;5.50;1.00
262;DHT22;114;48.260;10.988;2023-12-20T03:06:35;5.50;1.00
262;DHT22;114;48.260;10.988;2023-12-20T03:09:00;5.50;1.00
262;DHT22;114;48.260;10.988;2023-12-20T03:11:29;5.60;1.00
262;DHT22;114;48.260;10.988;2023-12-20T03:13:58;5.40;1.00
262;DHT22;114;48.260;10.988;2023-12-20T03:16:23;5.40;1.00
262;DHT22;114;48.260;10.988;2023-12-20T03:18:49;5.40;1.00
262;DHT22;114;48.260;10.988;2023-12-20T03:21:15;5.30;1.00
262;DHT22;114;48.260;10.988;2023-12-20T03:23:41;5.30;1.00
262;DHT22;114;48.260;10.988;2023-12-20T03:26:08;5.20;1.00
262;DHT22;114;48.260;10.988;2023-12-20T03:28:34;5.10;1.00
262;DHT22;114;48.260;10.988;2023-12-20T03:31:01;5.00;1.00
262;DHT22;114;48.260;10.988;2023-12-20T03:33:28;5.00;1.00
262;DHT22;114;48.260;10.988;2023-12-20T03:35:53;5.00;1.00
262;DHT22;114;48.260;10.988;2023-12-20T03:38:21;5.10;1.00
262;DHT22;114;48.260;10.988;2023-12-20T03:40:46;4.90;1.00
262;DHT22;114;48.260;10.988;2023-12-20T03:43:12;4.90;1.00
262;DHT22;114;48.260;10.988;2023-12-20T03:45:38;4.80;1.00
262;DHT22;114;48.260;10.988;2023-12-20T03:48:04;4.80;1.00
262;DHT22;114;48.260;10.988;2023-12-20T03:50:30;4.70;1.00
262;DHT22;114;48.260;10.988;2023-12-20T03:52:56;4.70;1.00
262;DHT22;114;48.260;10.988;2023-12-20T03:55:22;4.70;1.00
262;DHT22;114;48.260;10.988;2023-12-20T03:57:48;4.70;1.00
262;DHT22;114;48.260;10.988;2023-12-20T04:00:14;4.70;1.00
262;DHT22;114;48.260;10.988;2023-12-20T04:02:41;4.70;1.00
262;DHT22;114;48.260;10.988;2023-12-20T04:05:08;4.70;1.00
262;DHT22;114;48.260;10.988;2023-12-20T04:07:35;4.70;1.00
262;DHT22;114;48.260;10.988;2023-12-20T04:10:02;4.70;1.00
262;DHT22;114;48.260;10.988;2023-12-20T04:12:29;4.70;1.00
262;DHT22;114;48.260;10.988;2023-12-20T04:14:55;4.70;1.00
262;DHT22;114;48.260;10.988;2023-12-20T04:17:21;4.70;1.00
262;DHT22;114;48.260;10.988;2023-12-20T04:19:50;4.60;1.00
262;DHT22;114;48.260;10.988;2023-12-20T04:22:17;4.60;1.00
262;DHT22;114;48.260;10.988;2023-12-20T04:24:45;4.60;1.00
262;DHT22;114;48.260;10.988;2023-12-20T04:27:11;4.60;1.00
262;DHT22;114;48.260;10.988;2023-12-20T04:29:38;4.60;1.00
262;DHT22;114;48.260;10.988;2023-12-20T04:32:04;4.70;1.00
262;DHT22;114;48.260;10.988;2023-12-20T04:34:30;4.50;1.00
262;DHT22;114;48.260;10.988;2023-12-20T04:36:56;4.60;1.00
262;DHT22;114;48.260;10.988;2023-12-20T04:39:22;4.60;1.00
262;DHT22;114;48.260;10.988;2023-12-20T04:41:47;4.50;1.00
262;DHT22;114;48.260;10.988;2023-12-20T04:44:13;4.60;1.00
262;DHT22;114;48.260;10.988;2023-12-20T04:46:39;4.60;1.00
262;DHT22;114;48.260;10.988;2023-12-20T04:49:05;4.50;1.00
262;DHT22;114;48.260;10.988;2023-12-20T04:51:33;4.50;1.00
262;DHT22;114;48.260;10.988;2023-12-20T04:53:59;4.60;1.00
262;DHT22;114;48.260;10.988;2023-12-20T04:56:25;4.60;1.00
262;DHT22;114;48.260;10.988;2023-12-20T04:58:51;4.60;1.00
262;DHT22;114;48.260;10.988;2023-12-20T05:01:17;4.60;1.00
262;DHT22;114;48.260;10.988;2023-12-20T05:03:42;4.70;1.00
262;DHT22;114;48.260;10.988;2023-12-20T05:06:09;4.60;1.00
262;DHT22;114;48.260;10.988;2023-12-20T05:08:35;4.60;1.00
262;DHT22;114;48.260;10.988;2023-12-20T05:11:01;4.60;1.00
262;DHT22;114;48.260;10.988;2023-12-20T05:13:27;4.60;1.00
262;DHT22;114;48.260;10.988;2023-12-20T05:15:52;4.60;1.00
262;DHT22;114;48.260;10.988;2023-12-20T05:18:18;4.60;1.00
262;DHT22;114;48.260;10.988;2023-12-20T05:20:44;4.60;1.00
262;DHT22;114;48.260;10.988;2023-12-20T05:23:09;4.50;1.00
262;DHT22;114;48.260;10.988;2023-12-20T05:25:35;4.60;1.00
262;DHT22;114;48.260;10.988;2023-12-20T05:28:00;4.60;1.00
262;DHT22;114;48.260;10.988;2023-12-20T05:30:26;4.60;1.00
262;DHT22;114;48.260;10.988;2023-12-20T05:32:52;4.60;1.00
262;DHT22;114;48.260;10.988;2023-12-20T05:35:17;4.50;1.00
262;DHT22;114;48.260;10.988;2023-12-20T05:37:43;4.50;1.00
262;DHT22;114;48.260;10.988;2023-12-20T05:40:10;4.50;1.00
262;DHT22;114;48.260;10.988;2023-12-20T05:42:36;4.50;1.00
262;DHT22;114;48.260;10.988;2023-12-20T05:45:03;4.40;1.00
262;DHT22;114;48.260;10.988;2023-12-20T05:47:29;4.50;1.00
262;DHT22;114;48.260;10.988;2023-12-20T05:49:55;4.50;1.00
262;DHT22;114;48.260;10.988;2023-12-20T05:52:20;4.40;1.00
262;DHT22;114;48.260;10.988;2023-12-20T05:54:46;4.40;1.00
262;DHT22;114;48.260;10.988;2023-12-20T05:57:11;4.40;1.00
262;DHT22;114;48.260;10.988;2023-12-20T05:59:37;4.30;1.00
262;DHT22;114;48.260;10.988;2023-12-20T06:02:03;4.30;1.00
262;DHT22;114;48.260;10.988;2023-12-20T06:04:30;4.30;1.00
262;DHT22;114;48.260;10.988;2023-12-20T06:06:55;4.30;1.00
262;DHT22;114;48.260;10.988;2023-12-20T06:09:21;4.30;1.00
262;DHT22;114;48.260;10.988;2023-12-20T06:11:47;4.20;1.00
262;DHT22;114;48.260;10.988;2023-12-20T06:14:12;4.20;1.00
262;DHT22;114;48.260;10.988;2023-12-20T06:16:38;4.20;1.00
262;DHT22;114;48.260;10.988;2023-12-20T06:19:04;4.10;1.00
262;DHT22;114;48.260;10.988;2023-12-20T06:21:29;4.10;1.00
262;DHT22;114;48.260;10.988;2023-12-20T06:23:55;4.00;1.00
262;DHT22;114;48.260;10.988;2023-12-20T06:26:20;3.90;1.00
262;DHT22;114;48.260;10.988;2023-12-20T06:28:46;3.90;1.00
262;DHT22;114;48.260;10.988;2023-12-20T06:31:11;3.90;1.00
262;DHT22;114;48.260;10.988;2023-12-20T06:33:38;3.90;1.00
262;DHT22;114;48.260;10.988;2023-12-20T06:36:06;3.90;1.00
262;DHT22;114;48.260;10.988;2023-12-20T06:38:31;3.90;1.00
262;DHT22;114;48.260;10.988;2023-12-20T06:40:57;3.90;1.00
262;DHT22;114;48.260;10.988;2023-12-20T06:43:24;3.90;1.00
262;DHT22;114;48.260;10.988;2023-12-20T06:45:49;4.00;1.00
262;DHT22;114;48.260;10.988;2023-12-20T06:48:16;3.90;1.00
262;DHT22;114;48.260;10.988;2023-12-20T06:50:42;3.90;1.00
262;DHT22;114;48.260;10.988;2023-12-20T06:53:07;3.90;1.00
262;DHT22;114;48.260;10.988;2023-12-20T06:55:36;3.90;1.00
262;DHT22;114;48.260;10.988;2023-12-20T06:58:03;3.90;1.00
262;DHT22;114;48.260;10.988;2023-12-20T07:00:30;3.90;1.00
262;DHT22;114;48.260;10.988;2023-12-20T07:02:56;3.90;1.00
262;DHT22;114;48.260;10.988;2023-12-20T07:05:21;4.00;1.00
262;DHT22;114;48.260;10.988;2023-12-20T07:07:47;4.00;1.00
262;DHT22;114;48.260;10.988;2023-12-20T07:10:13;4.00;1.00
262;DHT22;114;48.260;10.988;2023-12-20T07:12:39;4.00;1.00
262;DHT22;114;48.260;10.988;2023-12-20T07:15:05;4.00;1.00
262;DHT22;114;48.260;10.988;2023-12-20T07:17:33;4.00;1.00
262;DHT22;114;48.260;10.988;2023-12-20T07:19:59;4.00;1.00
262;DHT22;114;48.260;10.988;2023-12-20T07:22:32;4.10;1.00
262;DHT22;114;48.260;10.988;2023-12-20T07:24:58;4.10;1.00
262;DHT22;114;48.260;10.988;2023-12-20T07:27:24;4.10;1.00
262;DHT22;114;48.260;10.988;2023-12-20T07:29:50;4.10;1.00
262;DHT22;114;48.260;10.988;2023-12-20T07:32:15;4.10;1.00
262;DHT22;114;48.260;10.988;2023-12-20T07:34:41;4.10;1.00
262;DHT22;114;48.260;10.988;2023-12-20T07:37:06;4.10;1.00
262;DHT22;114;48.260;10.988;2023-12-20T07:39:35;4.10;1.00
262;DHT22;114;48.260;10.988;2023-12-20T07:42:01;4.10;1.00
262;DHT22;114;48.260;10.988;2023-12-20T07:44:26;4.10;1.00
262;DHT22;114;48.260;10.988;2023-12-20T07:46:53;4.10;1.00
262;DHT22;114;48.260;10.988;2023-12-20T07:49:19;4.10;1.00
262;DHT22;114;48.260;10.988;2023-12-20T07:51:45;4.10;1.00
262;DHT22;114;48.260;10.988;2023-12-20T07:54:10;4.10;1.00
262;DHT22;114;48.260;10.988;2023-12-20T07:56:37;4.20;1.00
262;DHT22;114;48.260;10.988;2023-12-20T07:59:02;4.30;1.00
262;DHT22;114;48.260;10.988;2023-12-20T08:01:28;4.30;1.00
262;DHT22;114;48.260;10.988;2023-12-20T08:03:54;4.10;1.00
262;DHT22;114;48.260;10.988;2023-12-20T08:06:19;4.20;1.00
262;DHT22;114;48.260;10.988;2023-12-20T08:08:45;4.20;1.00
262;DHT22;114;48.260;10.988;2023-12-20T08:11:10;4.20;1.00
262;DHT22;114;48.260;10.988;2023-12-20T08:13:36;4.20;1.00
262;DHT22;114;48.260;10.988;2023-12-20T08:16:02;4.20;1.00
262;DHT22;114;48.260;10.988;2023-12-20T08:18:28;4.20;1.00
262;DHT22;114;48.260;10.988;2023-12-20T08:20:54;4.30;1.00
262;DHT22;114;48.260;10.988;2023-12-20T08:23:20;4.20;1.00
262;DHT22;114;48.260;10.988;2023-12-20T08:25:46;4.20;1.00
262;DHT22;114;48.260;10.988;2023-12-20T08:28:13;4.20;1.00
262;DHT22;114;48.260;10.988;2023-12-20T08:30:40;4.40;1.00
262;DHT22;114;48.260;10.988;2023-12-20T08:33:06;4.30;1.00
262;DHT22;114;48.260;10.988;2023-12-20T08:35:36;4.30;1.00
262;DHT22;114;48.260;10.988;2023-12-20T08:38:02;4.30;1.00
262;DHT22;114;48.260;10.988;2023-12-20T08:40:29;4.40;1.00
262;DHT22;114;48.260;10.988;2023-12-20T08:42:55;4.40;1.00
262;DHT22;114;48.260;10.988;2023-12-20T08:45:21;4.30;1.00
262;DHT22;114;48.260;10.988;2023-12-20T08:47:47;4.40;1.00
262;DHT22;114;48.260;10.988;2023-12-20T08:50:13;4.40;1.00
262;DHT22;114;48.260;10.988;2023-12-20T08:52:39;4.50;1.00
262;DHT22;114;48.260;10.988;2023-12-20T08:55:05;4.50;1.00
262;DHT22;114;48.260;10.988;2023-12-20T08:57:30;4.50;1.00
262;DHT22;114;48.260;10.988;2023-12-20T08:59:57;4.50;1.00
262;DHT22;114;48.260;10.988;2023-12-20T09:02:23;4.50;1.00
262;DHT22;114;48.260;10.988;2023-12-20T09:04:48;4.50;1.00
262;DHT22;114;48.260;10.988;2023-12-20T09:07:27;4.70;1.00
262;DHT22;114;48.260;10.988;2023-12-20T09:09:55;4.60;1.00
262;DHT22;114;48.260;10.988;2023-12-20T09:12:20;4.60;1.00
262;DHT22;114;48.260;10.988;2023-12-20T09:14:47;4.70;1.00
262;DHT22;114;48.260;10.988;2023-12-20T09:17:12;4.70;1.00
262;DHT22;114;48.260;10.988;2023-12-20T09:19:38;4.70;1.00
262;DHT22;114;48.260;10.988;2023-12-20T09:22:05;4.70;1.00
262;DHT22;114;48.260;10.988;2023-12-20T09:24:31;4.80;1.00
262;DHT22;114;48.260;10.988;2023-12-20T09:26:56;4.80;1.00
262;DHT22;114;48.260;10.988;2023-12-20T09:29:23;4.80;1.00
262;DHT22;114;48.260;10.988;2023-12-20T09:31:50;4.80;1.00
262;DHT22;114;48.260;10.988;2023-12-20T09:34:16;4.90;1.00
262;DHT22;114;48.260;10.988;2023-12-20T09:36:45;4.90;1.00
262;DHT22;114;48.260;10.988;2023-12-20T09:39:16;4.90;1.00
262;DHT22;114;48.260;10.988;2023-12-20T09:42:01;4.90;1.00
262;DHT22;114;48.260;10.988;2023-12-20T09:44:28;5.00;1.00
262;DHT22;114;48.260;10.988;2023-12-20T09:46:56;5.00;1.00
262;DHT22;114;48.260;10.988;2023-12-20T09:49:22;5.00;1.00
262;DHT22;114;48.260;10.988;2023-12-20T09:51:50;5.00;1.00
262;DHT22;114;48.260;10.988;2023-12-20T09:54:17;5.10;1.00
262;DHT22;114;48.260;10.988;2023-12-20T09:56:46;5.00;1.00
262;DHT22;114;48.260;10.988;2023-12-20T09:59:13;5.10;1.00
262;DHT22;114;48.260;10.988;2023-12-20T10:01:40;5.20;1.00
262;DHT22;114;48.260;10.988;2023-12-20T10:04:08;5.30;1.00
262;DHT22;114;48.260;10.988;2023-12-20T10:06:52;5.40;1.00
262;DHT22;114;48.260;10.988;2023-12-20T10:09:18;5.40;1.00
262;DHT22;114;48.260;10.988;2023-12-20T10:11:44;5.40;1.00
262;DHT22;114;48.260;10.988;2023-12-20T10:14:11;5.40;1.00
262;DHT22;114;48.260;10.988;2023-12-20T10:16:36;5.40;1.00
262;DHT22;114;48.260;10.988;2023-12-20T10:19:02;5.30;1.00
262;DHT22;114;48.260;10.988;2023-12-20T10:21:28;5.40;1.00
262;DHT22;114;48.260;10.988;2023-12-20T10:23:57;5.40;1.00
262;DHT22;114;48.260;10.988;2023-12-20T10:26:27;5.50;1.00
262;DHT22;114;48.260;10.988;2023-12-20T10:28:54;5.60;1.00
262;DHT22;114;48.260;10.988;2023-12-20T10:31:30;5.70;1.00
262;DHT22;114;48.260;10.988;2023-12-20T10:33:57;5.80;1.00
262;DHT22;114;48.260;10.988;2023-12-20T10:36:26;6.00;1.00
262;DHT22;114;48.260;10.988;2023-12-20T10:38:55;5.90;1.00
262;DHT22;114;48.260;10.988;2023-12-20T10:41:29;6.00;1.00
262;DHT22;114;48.260;10.988;2023-12-20T10:44:00;6.00;1.00
262;DHT22;114;48.260;10.988;2023-12-20T10:46:29;5.90;1.00
262;DHT22;114;48.260;10.988;2023-12-20T10:48:56;5.80;1.00
262;DHT22;114;48.260;10.988;2023-12-20T10:51:23;5.90;1.00
262;DHT22;114;48.260;10.988;2023-12-20T10:53:52;5.90;1.00
262;DHT22;114;48.260;10.988;2023-12-20T10:56:19;6.40;1.00
262;DHT22;114;48.260;10.988;2023-12-20T10:58:48;6.70;1.00
262;DHT22;114;48.260;10.988;2023-12-20T11:01:18;6.60;1.00
262;DHT22;114;48.260;10.988;2023-12-20T11:03:52;6.40;1.00
262;DHT22;114;48.260;10.988;2023-12-20T11:09:38;6.10;1.00
262;DHT22;114;48.260;10.988;2023-12-20T11:12:09;6.10;1.00
262;DHT22;114;48.260;10.988;2023-12-20T11:17:10;6.00;1.00
262;DHT22;114;48.260;10.988;2023-12-20T11:22:29;5.90;1.00
262;DHT22;114;48.260;10.988;2023-12-20T11:25:06;6.00;1.00
262;DHT22;114;48.260;10.988;2023-12-20T11:27:34;5.90;1.00
262;DHT22;114;48.260;10.988;2023-12-20T11:30:03;6.00;1.00
262;DHT22;114;48.260;10.988;2023-12-20T11:32:34;6.00;1.00
262;DHT22;114;48.260;10.988;2023-12-20T11:37:36;6.00;1.00
262;DHT22;114;48.260;10.988;2023-12-20T11:40:16;6.00;1.00
262;DHT22;114;48.260;10.988;2023-12-20T11:42:48;6.00;1.00
262;DHT22;114;48.260;10.988;2023-12-20T11:45:16;6.00;1.00
262;DHT22;114;48.260;10.988;2023-12-20T11:47:46;6.00;1.00
262;DHT22;114;48.260;10.988;2023-12-20T11:50:12;5.90;1.00
262;DHT22;114;48.260;10.988;2023-12-20T11:52:38;5.90;1.00
262;DHT22;114;48.260;10.988;2023-12-20T11:55:05;5.80;1.00
262;DHT22;114;48.260;10.988;2023-12-20T11:57:31;5.70;1.00
262;DHT22;114;48.260;10.988;2023-12-20T11:59:57;5.70;1.00
262;DHT22;114;48.260;10.988;2023-12-20T12:02:23;5.50;1.00
262;DHT22;114;48.260;10.988;2023-12-20T12:04:49;5.40;1.00
262;DHT22;114;48.260;10.988;2023-12-20T12:07:16;5.30;1.00
262;DHT22;114;48.260;10.988;2023-12-20T12:09:43;5.20;1.00
262;DHT22;114;48.260;10.988;2023-12-20T12:12:09;5.10;1.00
262;DHT22;114;48.260;10.988;2023-12-20T12:14:35;4.90;1.00
262;DHT22;114;48.260;10.988;2023-12-20T12:17:03;4.80;1.00
262;DHT22;114;48.260;10.988;2023-12-20T12:19:29;4.70;1.00
262;DHT22;114;48.260;10.988;2023-12-20T12:22:15;4.60;1.00
262;DHT22;114;48.260;10.988;2023-12-20T12:24:46;4.60;1.00
262;DHT22;114;48.260;10.988;2023-12-20T12:27:16;4.40;1.00
262;DHT22;114;48.260;10.988;2023-12-20T12:30:03;4.40;1.00
262;DHT22;114;48.260;10.988;2023-12-20T12:32:30;4.40;1.00
262;DHT22;114;48.260;10.988;2023-12-20T12:34:55;4.40;1.00
262;DHT22;114;48.260;10.988;2023-12-20T12:37:22;4.50;1.00
262;DHT22;114;48.260;10.988;2023-12-20T12:39:49;4.50;1.00
262;DHT22;114;48.260;10.988;2023-12-20T12:42:15;4.60;1.00
262;DHT22;114;48.260;10.988;2023-12-20T12:44:42;4.70;1.00
262;DHT22;114;48.260;10.988;2023-12-20T12:47:07;4.70;1.00
262;DHT22;114;48.260;10.988;2023-12-20T12:49:33;4.80;1.00
262;DHT22;114;48.260;10.988;2023-12-20T12:51:59;4.80;1.00
262;DHT22;114;48.260;10.988;2023-12-20T12:54:25;4.90;1.00
262;DHT22;114;48.260;10.988;2023-12-20T12:56:51;4.80;1.00
262;DHT22;114;48.260;10.988;2023-12-20T12:59:18;4.80;1.00
262;DHT22;114;48.260;10.988;2023-12-20T13:01:44;4.70;1.00
262;DHT22;114;48.260;10.988;2023-12-20T13:04:10;4.70;1.00
262;DHT22;114;48.260;10.988;2023-12-20T13:06:39;4.70;1.00
262;DHT22;114;48.260;10.988;2023-12-20T13:09:06;4.70;1.00
262;DHT22;114;48.260;10.988;2023-12-20T13:11:33;4.80;1.00
262;DHT22;114;48.260;10.988;2023-12-20T13:13:59;4.80;1.00
262;DHT22;114;48.260;10.988;2023-12-20T13:16:25;5.00;1.00
262;DHT22;114;48.260;10.988;2023-12-20T13:18:51;5.00;1.00
262;DHT22;114;48.260;10.988;2023-12-20T13:21:16;5.00;1.00
262;DHT22;114;48.260;10.988;2023-12-20T13:23:42;5.10;1.00
262;DHT22;114;48.260;10.988;2023-12-20T13:26:08;5.00;1.00
262;DHT22;114;48.260;10.988;2023-12-20T13:28:34;4.90;1.00
262;DHT22;114;48.260;10.988;2023-12-20T13:30:59;4.90;1.00
262;DHT22;114;48.260;10.988;2023-12-20T13:33:25;5.10;1.00
262;DHT22;114;48.260;10.988;2023-12-20T13:35:51;5.00;1.00
262;DHT22;114;48.260;10.988;2023-12-20T13:38:17;5.00;1.00
262;DHT22;114;48.260;10.988;2023-12-20T13:40:42;5.00;1.00
262;DHT22;114;48.260;10.988;2023-12-20T13:43:08;5.00;1.00
262;DHT22;114;48.260;10.988;2023-12-20T13:45:36;4.90;1.00
262;DHT22;114;48.260;10.988;2023-12-20T13:48:01;4.90;1.00
262;DHT22;114;48.260;10.988;2023-12-20T13:50:28;4.80;1.00
262;DHT22;114;48.260;10.988;2023-12-20T13:52:53;4.90;1.00
262;DHT22;114;48.260;10.988;2023-12-20T13:55:19;4.90;1.00
262;DHT22;114;48.260;10.988;2023-12-20T13:57:47;4.90;1.00
262;DHT22;114;48.260;10.988;2023-12-20T14:00:14;4.90;1.00
262;DHT22;114;48.260;10.988;2023-12-20T14:02:43;4.90;1.00
262;DHT22;114;48.260;10.988;2023-12-20T14:05:09;4.90;1.00
262;DHT22;114;48.260;10.988;2023-12-20T14:07:36;4.90;1.00
262;DHT22;114;48.260;10.988;2023-12-20T14:10:03;4.90;1.00
262;DHT22;114;48.260;10.988;2023-12-20T14:12:33;4.90;1.00
262;DHT22;114;48.260;10.988;2023-12-20T14:15:03;4.80;1.00
262;DHT22;114;48.260;10.988;2023-12-20T14:17:28;4.80;1.00
262;DHT22;114;48.260;10.988;2023-12-20T14:19:54;4.80;1.00
262;DHT22;114;48.260;10.988;2023-12-20T14:22:20;4.80;1.00
262;DHT22;114;48.260;10.988;2023-12-20T14:24:47;4.90;1.00
262;DHT22;114;48.260;10.988;2023-12-20T14:27:13;4.80;1.00
262;DHT22;114;48.260;10.988;2023-12-20T14:29:39;4.80;1.00
262;DHT22;114;48.260;10.988;2023-12-20T14:32:05;4.70;1.00
262;DHT22;114;48.260;10.988;2023-12-20T14:34:31;4.60;1.00
262;DHT22;114;48.260;10.988;2023-12-20T14:36:57;4.50;1.00
262;DHT22;114;48.260;10.988;2023-12-20T14:39:23;4.50;1.00
262;DHT22;114;48.260;10.988;2023-12-20T14:41:49;4.40;1.00
262;DHT22;114;48.260;10.988;2023-12-20T14:44:14;4.40;1.00
262;DHT22;114;48.260;10.988;2023-12-20T14:46:40;4.30;1.00
262;DHT22;114;48.260;10.988;2023-12-20T14:49:06;4.30;1.00
262;DHT22;114;48.260;10.988;2023-12-20T14:51:32;4.20;1.00
262;DHT22;114;48.260;10.988;2023-12-20T14:53:58;4.20;1.00
262;DHT22;114;48.260;10.988;2023-12-20T14:56:24;4.20;1.00
262;DHT22;114;48.260;10.988;2023-12-20T14:58:51;4.20;1.00
262;DHT22;114;48.260;10.988;2023-12-20T15:01:17;4.20;1.00
262;DHT22;114;48.260;10.988;2023-12-20T15:03:50;4.20;1.00
262;DHT22;114;48.260;10.988;2023-12-20T15:06:16;4.10;1.00
262;DHT22;114;48.260;10.988;2023-12-20T15:08:41;4.10;1.00
262;DHT22;114;48.260;10.988;2023-12-20T15:11:07;4.00;1.00
262;DHT22;114;48.260;10.988;2023-12-20T15:13:33;4.00;1.00
262;DHT22;114;48.260;10.988;2023-12-20T15:15:59;4.00;1.00
262;DHT22;114;48.260;10.988;2023-12-20T15:18:25;4.00;1.00
262;DHT22;114;48.260;10.988;2023-12-20T15:20:50;3.90;1.00
262;DHT22;114;48.260;10.988;2023-12-20T15:23:16;3.90;1.00
262;DHT22;114;48.260;10.988;2023-12-20T15:25:42;3.90;1.00
262;DHT22;114;48.260;10.988;2023-12-20T15:28:09;3.80;1.00
262;DHT22;114;48.260;10.988;2023-12-20T15:30:34;3.90;1.00
262;DHT22;114;48.260;10.988;2023-12-20T15:33:01;3.80;1.00
262;DHT22;114;48.260;10.988;2023-12-20T15:35:28;3.70;1.00
262;DHT22;114;48.260;10.988;2023-12-20T15:37:54;3.60;1.00
262;DHT22;114;48.260;10.988;2023-12-20T15:40:20;3.50;1.00
262;DHT22;114;48.260;10.988;2023-12-20T15:42:47;3.50;1.00
262;DHT22;114;48.260;10.988;2023-12-20T15:45:13;3.40;1.00
262;DHT22;114;48.260;10.988;2023-12-20T15:47:39;3.30;1.00
262;DHT22;114;48.260;10.988;2023-12-20T15:50:05;3.30;1.00
262;DHT22;114;48.260;10.988;2023-12-20T15:52:32;3.20;1.00
262;DHT22;114;48.260;10.988;2023-12-20T15:54:58;3.30;1.00
262;DHT22;114;48.260;10.988;2023-12-20T15:57:23;3.20;1.00
262;DHT22;114;48.260;10.988;2023-12-20T15:59:49;3.20;1.00
262;DHT22;114;48.260;10.988;2023-12-20T16:02:17;3.20;1.00
262;DHT22;114;48.260;10.988;2023-12-20T16:04:44;3.10;1.00
262;DHT22;114;48.260;10.988;2023-12-20T16:07:10;3.20;1.00
262;DHT22;114;48.260;10.988;2023-12-20T16:09:36;3.10;1.00
262;DHT22;114;48.260;10.988;2023-12-20T16:12:01;3.20;1.00
262;DHT22;114;48.260;10.988;2023-12-20T16:14:27;3.20;1.00
262;DHT22;114;48.260;10.988;2023-12-20T16:16:55;3.20;1.00
262;DHT22;114;48.260;10.988;2023-12-20T16:19:20;3.10;1.00
262;DHT22;114;48.260;10.988;2023-12-20T16:21:46;3.10;1.00
262;DHT22;114;48.260;10.988;2023-12-20T16:24:12;3.10;1.00
262;DHT22;114;48.260;10.988;2023-12-20T16:26:37;3.20;1.00
262;DHT22;114;48.260;10.988;2023-12-20T16:29:03;3.10;1.00
262;DHT22;114;48.260;10.988;2023-12-20T16:31:29;3.10;1.00
262;DHT22;114;48.260;10.988;2023-12-20T16:33:54;3.20;1.00
262;DHT22;114;48.260;10.988;2023-12-20T16:36:20;3.20;1.00
262;DHT22;114;48.260;10.988;2023-12-20T16:38:46;3.30;1.00
262;DHT22;114;48.260;10.988;2023-12-20T16:41:12;3.30;1.00
262;DHT22;114;48.260;10.988;2023-12-20T16:43:39;3.30;1.00
262;DHT22;114;48.260;10.988;2023-12-20T16:46:05;3.30;1.00
262;DHT22;114;48.260;10.988;2023-12-20T16:48:31;3.30;1.00
262;DHT22;114;48.260;10.988;2023-12-20T16:50:58;3.40;1.00
262;DHT22;114;48.260;10.988;2023-12-20T16:53:24;3.60;1.00
262;DHT22;114;48.260;10.988;2023-12-20T16:55:50;3.50;1.00
262;DHT22;114;48.260;10.988;2023-12-20T16:58:16;3.50;1.00